메인 페이지
METAR-TAF:

METAR-TAF

공항 :

Humberside, 잉글랜드

위도: 53-35N, 경도: 000-21W, 고도: 31m

현재 날씨관측

예보는 53분 전, 02:20시(UTC)에 발표되었습니다.
서북서8kt
온도 12°C
습도 82%
기압 1014 hPa
시정 10km 이상
약한비,

METAR: EGNJ 130220Z AUTO 29008KT 9999 -RA BKN016/// OVC022/// 12/09 Q1014

시각: 04:13 (03:13 UTC)

예보

예보는 1 시간 17분 전, 01:56시(UTC)에 발표되었습니다.
예보 대상 시간: 13일 03시부터 13일 12시까지 (UTC)
북북동6kt
시정 10km 이상
고도 2500ft 상공 구름 보통
일시적
13일 03시부터 13일 12시까지 (UTC)
시정: 6000m
고도 1200ft 상공 구름 많음
약한비, 이슬비
확률 30% :
일시적
13일 06시부터 13일 12시까지 (UTC)
시정: 4000m
고도 900ft 상공 구름 많음
비, 이슬비,

TAF: EGNJ 130156Z 1303/1312 02006KT 9999 SCT025 TEMPO 1303/1312 6000 -RADZ BKN012 PROB30 TEMPO 1306/1312 4000 RADZ BKN009

4,000개 이상의 공항 관측 자료 및 예보 (METAR 및 TAF 보고).

지도상에서 검색 가능한 기상관측소가 노란 점과 빨간 점으로 표시되어 있습니다.

기상관측소 명을 보려면 표시 위로 마우스를 이동하세요.

날씨 관측과 예보를 보려면 클릭하세요.

지도 변경 : 확대하려면 엑스 표시가 있는 녹색 버튼, 축소하려면 빼기 표시가 있는 녹색 버튼, 다음 페이지의 지도를 보려면 녹색 화살표를 클릭하세요.


METAR-TAF: